createdAt,value
2022-11-09T00:00:56.360Z,100248.16
2022-11-09T00:03:23.704Z,100251.63
2022-11-09T00:05:54.890Z,100256.84
2022-11-09T00:08:22.342Z,100251.63
2022-11-09T00:10:49.781Z,100249.03
2022-11-09T00:13:17.542Z,100250.75
2022-11-09T00:15:45.748Z,100252.56
2022-11-09T00:18:13.337Z,100250.81
2022-11-09T00:20:46.910Z,100251.72
2022-11-09T00:23:18.640Z,100253.38
2022-11-09T00:25:47.616Z,100250.00
2022-11-09T00:28:15.497Z,100249.09
2022-11-09T00:30:42.937Z,100250.00
2022-11-09T00:33:12.308Z,100247.38
2022-11-09T00:35:45.214Z,100255.19
2022-11-09T00:38:12.671Z,100248.16
2022-11-09T00:40:39.926Z,100251.63
2022-11-09T00:43:07.329Z,100256.94
2022-11-09T00:45:34.767Z,100255.22
2022-11-09T00:48:03.242Z,100257.00
2022-11-09T00:50:30.605Z,100263.06
2022-11-09T00:52:58.464Z,100263.78
2022-11-09T00:55:26.584Z,100248.00
2022-11-09T00:57:54.811Z,100262.03
2022-11-09T01:00:24.545Z,100261.13
2022-11-09T01:02:53.476Z,100255.03
2022-11-09T01:05:20.784Z,100264.69
2022-11-09T01:07:49.712Z,100263.84
2022-11-09T01:10:17.126Z,100264.72
2022-11-09T01:12:47.085Z,100269.13
2022-11-09T01:15:15.720Z,100278.75
2022-11-09T01:17:43.213Z,100278.81
2022-11-09T01:20:11.619Z,100274.47
2022-11-09T01:22:39.272Z,100273.66
2022-11-09T01:25:07.465Z,100274.50
2022-11-09T01:27:35.156Z,100268.38
2022-11-09T01:30:05.118Z,100279.75
2022-11-09T01:32:33.800Z,100279.78
2022-11-09T01:35:01.252Z,100287.56
2022-11-09T01:37:31.252Z,100284.06
2022-11-09T01:39:58.658Z,100285.84
2022-11-09T01:42:26.726Z,100279.69
2022-11-09T01:45:22.170Z,100282.34
2022-11-09T01:47:54.667Z,100288.47
2022-11-09T01:50:31.669Z,100291.94
2022-11-09T01:53:02.473Z,100298.88
2022-11-09T01:55:30.502Z,100293.72
2022-11-09T01:58:03.579Z,100301.53
2022-11-09T02:00:34.322Z,100300.66
2022-11-09T02:03:08.256Z,100295.47
2022-11-09T02:05:39.729Z,100298.09
2022-11-09T02:08:09.006Z,100304.19
2022-11-09T02:10:53.291Z,100293.72
2022-11-09T02:13:24.063Z,100297.22
2022-11-09T02:15:52.129Z,100299.81
2022-11-09T02:18:20.440Z,100305.06
2022-11-09T02:20:50.942Z,100306.81
2022-11-09T02:23:19.754Z,100299.00
2022-11-09T02:25:59.915Z,100294.59
2022-11-09T02:28:28.983Z,100304.22
2022-11-09T02:30:58.208Z,100302.50
2022-11-09T02:33:27.103Z,100299.00
2022-11-09T02:35:55.479Z,100292.03
2022-11-09T02:38:23.243Z,100298.13
2022-11-09T02:40:53.000Z,100293.78
2022-11-09T02:43:21.003Z,100294.69
2022-11-09T02:45:48.975Z,100295.53
2022-11-09T02:48:17.240Z,100293.75
2022-11-09T02:50:44.596Z,100296.41
2022-11-09T02:53:11.965Z,100302.50
2022-11-09T02:55:43.271Z,100299.84
2022-11-09T02:58:11.057Z,100300.75
2022-11-09T03:00:40.098Z,100296.38
2022-11-09T03:03:08.069Z,100295.53
2022-11-09T03:05:35.796Z,100298.16
2022-11-09T03:08:03.938Z,100300.75
2022-11-09T03:10:34.658Z,100289.47
2022-11-09T03:13:02.682Z,100291.19
2022-11-09T03:15:29.914Z,100297.28
2022-11-09T03:17:57.329Z,100301.63
2022-11-09T03:20:25.453Z,100301.59
2022-11-09T03:22:59.672Z,100300.72
2022-11-09T03:25:28.821Z,100305.09
2022-11-09T03:28:05.039Z,100305.09
2022-11-09T03:30:32.879Z,100298.13
2022-11-09T03:33:04.318Z,100299.84
2022-11-09T03:35:31.906Z,100298.13
2022-11-09T03:37:59.571Z,100299.03
2022-11-09T03:40:27.129Z,100293.81
2022-11-09T03:42:54.569Z,100299.03
2022-11-09T03:45:22.137Z,100290.31
2022-11-09T03:47:49.696Z,100306.03
2022-11-09T03:50:17.918Z,100304.25
2022-11-09T03:52:46.551Z,100303.41
2022-11-09T03:55:15.008Z,100316.47
2022-11-09T03:57:45.410Z,100310.38
2022-11-09T04:00:16.243Z,100321.69
2022-11-09T04:02:43.939Z,100311.25
2022-11-09T04:05:11.975Z,100326.06
2022-11-09T04:07:39.916Z,100324.31
2022-11-09T04:10:07.933Z,100324.34
2022-11-09T04:12:35.404Z,100335.66
2022-11-09T04:15:02.656Z,100333.03
2022-11-09T08:43:29.000Z,100697.47
2022-11-09T08:45:56.468Z,100689.50
2022-11-09T08:48:23.975Z,100699.91
2022-11-09T08:50:56.679Z,100704.16
2022-11-09T08:53:26.572Z,100696.22
2022-11-09T08:55:54.340Z,100711.09
2022-11-09T08:58:22.799Z,100707.63
2022-11-09T09:00:50.643Z,100712.94
2022-11-09T09:03:18.215Z,100717.34
2022-11-09T09:05:45.672Z,100725.25
2022-11-09T09:08:15.670Z,100729.63
2022-11-09T09:10:43.375Z,100728.75
2022-11-09T09:13:10.908Z,100745.34
2022-11-09T09:15:38.301Z,100737.41
2022-11-09T09:18:06.114Z,100741.81
2022-11-09T09:20:33.713Z,100748.75
2022-11-09T09:23:01.706Z,100747.00
2022-11-09T09:25:29.107Z,100752.28
2022-11-09T09:27:56.862Z,100755.78
2022-11-09T09:30:24.603Z,100764.50
2022-11-09T09:32:52.134Z,100766.16
2022-11-09T09:35:19.516Z,100763.47
2022-11-09T09:37:47.175Z,100779.16
2022-11-09T09:40:49.928Z,100780.75
2022-11-09T09:43:28.265Z,100785.91
2022-11-09T09:45:57.184Z,100783.16
2022-11-09T09:48:46.992Z,100793.50
2022-11-09T09:51:54.207Z,100790.66
2022-11-09T09:54:28.796Z,100794.91
2022-11-09T09:57:00.446Z,100795.66
2022-11-09T09:59:44.606Z,100799.78
2022-11-09T10:02:21.071Z,100803.34
2022-11-09T10:04:49.011Z,100802.28
2022-11-09T10:07:45.503Z,100809.22
2022-11-09T10:10:46.442Z,100803.84
2022-11-09T10:13:32.115Z,100814.00
2022-11-09T10:16:29.151Z,100818.81
2022-11-09T10:19:32.229Z,100822.94
2022-11-09T10:22:12.186Z,100822.63
2022-11-09T10:25:37.688Z,100826.56
2022-11-09T10:27:59.633Z,100836.00
2022-11-09T10:30:29.500Z,100838.44
2022-11-09T10:33:14.066Z,100844.41
2022-11-09T10:35:46.349Z,100842.72
2022-11-09T10:38:20.405Z,100853.34
2022-11-09T10:41:17.110Z,100852.47
2022-11-09T10:44:03.027Z,100862.50
2022-11-09T10:47:12.467Z,100867.00
2022-11-09T10:50:24.594Z,100870.50
2022-11-09T10:53:31.800Z,100870.25
2022-11-09T10:56:21.605Z,100882.38
2022-11-09T10:59:29.678Z,100884.25
2022-11-09T11:02:24.951Z,100887.91
2022-11-09T11:05:12.809Z,100886.16
2022-11-09T11:08:11.942Z,100895.00
2022-11-09T11:11:32.705Z,100887.28
2022-11-09T11:14:25.876Z,100887.00
2022-11-09T11:17:34.980Z,100895.44
2022-11-09T11:20:24.245Z,100893.78
2022-11-09T11:23:22.455Z,100882.59
2022-11-09T11:26:23.744Z,100887.97
2022-11-09T11:29:19.086Z,100895.22
2022-11-09T11:32:11.239Z,100899.75
2022-11-09T11:35:00.840Z,100894.56
2022-11-09T11:37:59.835Z,100900.84
2022-11-09T11:41:24.360Z,100898.84
2022-11-09T11:44:26.357Z,100897.69
2022-11-09T11:47:25.009Z,100899.00
2022-11-09T11:50:32.438Z,100891.34
2022-11-09T11:53:43.333Z,100894.81
2022-11-09T11:56:46.767Z,100900.47
2022-11-09T11:59:48.717Z,100904.50
2022-11-09T12:03:03.681Z,100895.44
2022-11-09T12:06:07.828Z,100894.56
2022-11-09T12:09:29.092Z,100900.00
2022-11-09T12:12:44.274Z,100907.28
2022-11-09T12:15:51.226Z,100909.34
2022-11-09T12:19:35.997Z,100913.50
2022-11-09T12:22:40.033Z,100910.75
2022-11-09T12:25:38.116Z,100902.63
2022-11-09T12:28:48.841Z,100905.97
2022-11-09T12:31:49.932Z,100914.81
2022-11-09T12:34:48.066Z,100930.03
2022-11-09T12:37:40.135Z,100932.69
2022-11-09T12:40:30.404Z,100929.25
2022-11-09T12:43:46.115Z,100931.28
2022-11-09T12:46:45.083Z,100929.63
2022-11-09T12:49:41.239Z,100935.16
2022-11-09T12:52:29.979Z,100946.06
2022-11-09T12:55:19.971Z,100951.69
2022-11-09T12:58:06.115Z,100954.66
2022-11-09T13:00:55.436Z,100954.00
2022-11-09T13:03:54.426Z,100955.72
2022-11-09T13:06:42.421Z,100953.16
2022-11-09T13:09:43.688Z,100955.94
2022-11-09T13:12:38.089Z,100965.84
2022-11-09T13:15:29.114Z,100964.09
2022-11-09T13:18:48.668Z,100957.88
2022-11-09T13:21:36.441Z,100956.28
2022-11-09T13:24:31.971Z,100964.41
2022-11-09T13:27:45.940Z,100960.81
2022-11-09T13:30:42.791Z,100968.66
2022-11-09T13:33:29.960Z,100970.31
2022-11-09T13:36:18.063Z,100956.44
2022-11-09T13:39:26.198Z,100962.91
2022-11-09T13:42:31.926Z,100966.50
2022-11-09T13:45:57.014Z,100959.69
2022-11-09T13:48:47.821Z,100974.75
2022-11-09T13:51:36.993Z,100959.66
2022-11-09T13:54:36.317Z,100962.00
2022-11-09T13:57:24.867Z,100954.00
2022-11-09T14:00:23.495Z,100960.00
2022-11-09T14:03:28.215Z,100961.66
2022-11-09T14:06:14.092Z,100972.16
2022-11-09T14:09:01.684Z,100965.09
2022-11-09T14:12:15.330Z,100973.06
2022-11-09T14:15:29.314Z,100982.81
2022-11-09T14:18:54.621Z,100991.53
2022-11-09T14:21:52.618Z,100992.50
2022-11-09T14:24:38.678Z,100997.03
2022-11-09T14:27:24.660Z,101003.25
2022-11-09T14:30:18.988Z,101009.56
2022-11-09T14:33:23.668Z,101001.63
2022-11-09T14:36:12.504Z,101003.28
2022-11-09T14:39:02.735Z,101011.22
2022-11-09T14:41:49.742Z,101019.16
2022-11-09T14:44:44.034Z,101021.06
2022-11-09T14:47:32.987Z,101021.97
2022-11-09T14:50:25.494Z,101042.16
2022-11-09T14:53:22.454Z,101035.06
2022-11-09T14:56:15.612Z,101038.50
2022-11-09T14:59:05.857Z,101036.69
2022-11-09T15:02:01.046Z,101049.06
2022-11-09T15:04:55.396Z,101036.81
2022-11-09T15:07:46.178Z,101044.66
2022-11-09T15:10:32.799Z,101046.41
2022-11-09T15:13:27.751Z,101050.81
2022-11-09T15:16:24.503Z,101042.88
2022-11-09T15:19:22.663Z,101059.59
2022-11-09T15:22:54.565Z,101056.22
2022-11-09T15:25:43.597Z,101064.19
2022-11-09T15:28:31.089Z,101068.53
2022-11-09T15:31:19.382Z,101066.03
2022-11-09T15:34:24.239Z,101076.63
2022-11-09T15:37:28.465Z,101080.22
2022-11-09T15:40:18.066Z,101089.94
2022-11-09T15:43:03.925Z,101082.00
2022-11-09T15:45:50.184Z,101087.31
2022-11-09T15:48:36.510Z,101089.25
2022-11-09T15:51:22.595Z,101093.66
2022-11-09T15:54:09.281Z,101094.59
2022-11-09T15:56:55.250Z,101096.41
2022-11-09T15:59:41.430Z,101093.00
2022-11-09T16:02:27.566Z,101098.31
2022-11-09T16:05:14.062Z,101096.59
2022-11-09T16:08:00.040Z,101101.09
2022-11-09T16:10:45.948Z,101095.88
2022-11-09T16:13:32.110Z,101102.97
2022-11-09T16:16:17.824Z,101110.91
2022-11-09T16:19:03.847Z,101120.53
2022-11-09T16:21:52.483Z,101124.97
2022-11-09T16:24:39.191Z,101122.34
2022-11-09T16:27:49.013Z,101129.38
2022-11-09T16:30:32.074Z,101138.19
2022-11-09T16:33:18.253Z,101137.31
2022-11-09T16:36:09.138Z,101144.38
2022-11-09T16:38:57.020Z,101161.91
2022-11-09T16:41:46.937Z,101163.66
2022-11-09T16:44:36.517Z,101167.13
2022-11-09T16:47:22.657Z,101175.91
2022-11-09T16:50:09.993Z,101182.00
2022-11-09T16:52:56.214Z,101182.91
2022-11-09T16:55:42.398Z,101195.16
2022-11-09T16:58:28.430Z,101200.38
2022-11-09T17:01:17.749Z,101196.88
2022-11-09T17:04:06.808Z,101203.88
2022-11-09T17:06:53.474Z,101210.81
2022-11-09T17:09:39.446Z,101221.31
2022-11-09T17:12:25.479Z,101222.19
2022-11-09T17:15:11.426Z,101227.34
2022-11-09T17:17:57.439Z,101226.47
2022-11-09T17:20:44.873Z,101240.44
2022-11-09T17:23:31.656Z,101240.38
2022-11-09T17:26:18.321Z,101248.25
2022-11-09T17:29:05.062Z,101259.59
2022-11-09T17:31:51.642Z,101267.47
2022-11-09T17:34:37.472Z,101258.59
2022-11-09T17:37:24.067Z,101262.06
2022-11-09T17:40:10.604Z,101274.38
2022-11-09T17:42:57.330Z,101271.84
2022-11-09T17:45:43.377Z,101277.09
2022-11-09T17:48:29.221Z,101279.69
2022-11-09T17:51:16.884Z,101282.16
2022-11-09T17:54:04.696Z,101283.00
2022-11-09T17:56:51.153Z,101283.84
2022-11-09T17:59:37.436Z,101289.09
2022-11-09T18:02:23.850Z,101296.16
2022-11-09T18:05:11.089Z,101302.22
2022-11-09T18:07:56.884Z,101305.59
2022-11-09T18:10:45.510Z,101304.66
2022-11-09T18:13:31.439Z,101316.84
2022-11-09T18:16:19.674Z,101319.38
2022-11-09T18:19:06.666Z,101322.00
2022-11-09T18:21:53.158Z,101317.63
2022-11-09T18:24:39.459Z,101315.00
2022-11-09T18:27:30.133Z,101313.31
2022-11-09T18:30:17.795Z,101321.25
2022-11-09T18:33:03.979Z,101322.13
2022-11-09T18:36:02.687Z,101338.69
2022-11-09T18:38:51.246Z,101337.69
2022-11-09T18:41:37.490Z,101338.56
2022-11-09T18:44:23.573Z,101345.53
2022-11-09T18:47:09.788Z,101345.50
2022-11-09T18:49:56.133Z,101347.22
2022-11-09T18:52:41.957Z,101351.63
2022-11-09T18:55:27.997Z,101351.50
2022-11-09T18:58:14.634Z,101355.97
2022-11-09T19:01:07.762Z,101367.09
2022-11-09T19:03:58.932Z,101366.28
2022-11-09T19:06:46.234Z,101369.66
2022-11-09T19:09:35.870Z,101371.22
2022-11-09T19:12:22.220Z,101371.13
2022-11-09T19:15:08.824Z,101371.03
2022-11-09T19:17:55.073Z,101370.94
2022-11-09T19:20:41.329Z,101374.38
2022-11-09T19:23:32.990Z,101384.69
2022-11-09T19:26:23.464Z,101381.09
2022-11-09T19:29:11.754Z,101377.06
2022-11-09T19:31:57.686Z,101383.13
2022-11-09T19:34:43.775Z,101383.94
2022-11-09T19:37:29.831Z,101389.84
2022-11-09T19:40:16.378Z,101391.56
2022-11-09T19:43:02.430Z,101388.91
2022-11-09T19:45:48.575Z,101394.91
2022-11-09T19:48:35.195Z,101394.91
2022-11-09T19:51:21.173Z,101404.38
2022-11-09T19:54:07.449Z,101411.22
2022-11-09T19:56:53.463Z,101414.63
2022-11-09T19:59:39.509Z,101415.38
2022-11-09T20:02:25.800Z,101428.38
2022-11-09T20:05:11.911Z,101427.44
2022-11-09T20:07:58.104Z,101441.38
2022-11-09T20:10:43.978Z,101448.28
2022-11-09T20:13:30.174Z,101450.84
2022-11-09T20:16:16.246Z,101450.69
2022-11-09T20:19:03.573Z,101461.94
2022-11-09T20:21:49.726Z,101471.47
2022-11-09T20:24:37.290Z,101481.00
2022-11-09T20:27:25.829Z,101479.16
2022-11-09T20:30:14.223Z,101485.19
2022-11-09T20:33:01.671Z,101488.59
2022-11-09T20:35:55.412Z,101495.41
2022-11-09T20:38:42.085Z,101497.91
2022-11-09T20:41:28.245Z,101502.28
2022-11-09T20:44:14.836Z,101494.38
2022-11-09T20:47:01.014Z,101500.38
2022-11-09T20:49:48.501Z,101507.34
2022-11-09T20:52:34.955Z,101509.94
2022-11-09T20:55:21.002Z,101521.22
2022-11-09T20:58:11.869Z,101515.94
2022-11-09T21:01:15.598Z,101521.22
2022-11-09T21:04:02.214Z,101518.63
2022-11-09T21:06:48.222Z,101524.66
2022-11-09T21:09:34.743Z,101525.56
2022-11-09T21:12:24.951Z,101519.44
2022-11-09T21:15:14.170Z,101523.69
2022-11-09T21:18:00.282Z,101528.78
2022-11-09T21:20:46.359Z,101533.19
2022-11-09T21:23:51.342Z,101532.31
2022-11-09T21:26:56.099Z,101536.59
2022-11-09T21:29:51.211Z,101548.53
2022-11-09T21:32:38.365Z,101549.34
2022-11-09T21:35:24.999Z,101551.00
2022-11-09T21:38:11.257Z,101558.78
2022-11-09T21:41:05.439Z,101558.75
2022-11-09T21:43:57.353Z,101568.16
2022-11-09T21:46:44.286Z,101571.56
2022-11-09T21:49:30.331Z,101577.63
2022-11-09T21:52:16.473Z,101573.16
2022-11-09T21:55:02.578Z,101580.06
2022-11-09T21:57:49.044Z,101579.91
2022-11-09T22:00:34.964Z,101589.47
2022-11-09T22:03:21.333Z,101588.59
2022-11-09T22:06:08.629Z,101585.06
2022-11-09T22:08:55.016Z,101590.16
2022-11-09T22:11:59.942Z,101590.97
2022-11-09T22:15:04.365Z,101597.94
2022-11-09T22:17:53.834Z,101601.41
2022-11-09T22:20:55.059Z,101599.59
2022-11-09T22:23:41.801Z,101605.66
2022-11-09T22:26:29.574Z,101597.84
2022-11-09T22:29:15.670Z,101606.53
2022-11-09T22:32:01.980Z,101608.41
2022-11-09T22:34:48.082Z,101604.97
2022-11-09T22:37:34.037Z,101607.72
2022-11-09T22:40:20.151Z,101610.44
2022-11-09T22:43:06.173Z,101610.31
2022-11-09T22:45:52.323Z,101609.44
2022-11-09T22:48:38.934Z,101615.38
2022-11-09T22:51:25.161Z,101618.03
2022-11-09T22:54:11.389Z,101611.84
2022-11-09T22:56:57.456Z,101616.28
2022-11-09T22:59:43.381Z,101617.94
2022-11-09T23:02:29.474Z,101622.25
2022-11-09T23:05:15.579Z,101619.50
2022-11-09T23:08:01.738Z,101621.16
2022-11-09T23:10:55.333Z,101618.59
2022-11-09T23:13:42.238Z,101623.88
2022-11-09T23:16:28.448Z,101623.84
2022-11-09T23:19:14.256Z,101629.19
2022-11-09T23:22:00.196Z,101627.31
2022-11-09T23:25:04.733Z,101639.34
2022-11-09T23:27:52.124Z,101637.56
2022-11-09T23:30:38.684Z,101644.63
2022-11-09T23:33:25.023Z,101653.63
2022-11-09T23:36:11.332Z,101651.91
2022-11-09T23:38:57.421Z,101647.56
2022-11-09T23:41:43.203Z,101649.38
2022-11-09T23:44:29.248Z,101653.63
2022-11-09T23:47:15.340Z,101658.75
2022-11-09T23:50:01.388Z,101656.13
2022-11-09T23:52:47.569Z,101662.00
2022-11-09T23:55:34.057Z,101662.94
2022-11-09T23:58:20.156Z,101661.72
